createdAt,value
2023-04-25T00:05:16.640Z,93.22
2023-04-25T00:08:18.733Z,93.45
2023-04-25T00:11:20.664Z,93.68
2023-04-25T00:14:23.526Z,94.09
2023-04-25T00:17:25.431Z,94.29
2023-04-25T00:20:27.314Z,93.92
2023-04-25T00:23:29.401Z,93.44
2023-04-25T00:26:31.321Z,92.69
2023-04-25T00:29:34.082Z,91.61
2023-04-25T00:32:36.366Z,90.68
2023-04-25T00:35:38.889Z,89.90
2023-04-25T00:38:40.852Z,89.06
2023-04-25T00:41:44.272Z,88.49
2023-04-25T00:44:47.086Z,88.10
2023-04-25T00:47:49.096Z,87.86
2023-04-25T00:50:57.221Z,88.04
2023-04-25T00:53:59.904Z,88.22
2023-04-25T00:57:03.441Z,88.51
2023-04-25T01:00:07.222Z,89.14
2023-04-25T01:03:11.509Z,89.73
2023-04-25T01:06:13.954Z,90.38
2023-04-25T01:09:16.498Z,90.97
2023-04-25T01:12:19.122Z,91.37
2023-04-25T01:15:22.535Z,91.69
2023-04-25T01:18:25.058Z,92.03
2023-04-25T01:21:28.576Z,92.59
2023-04-25T01:24:33.151Z,92.99
2023-04-25T01:27:37.317Z,93.58
2023-04-25T01:30:39.772Z,94.24
2023-04-25T01:33:42.139Z,94.67
2023-04-25T01:36:44.059Z,95.36
2023-04-25T01:39:46.246Z,96.04
2023-04-25T01:42:48.968Z,96.80
2023-04-25T01:45:51.891Z,97.72
2023-04-25T01:48:54.062Z,98.73
2023-04-25T01:55:33.028Z,100.00
2023-04-25T01:58:40.794Z,100.00
2023-04-25T02:05:15.978Z,100.00
2023-04-25T02:08:19.320Z,100.00
2023-04-25T02:11:21.307Z,100.00
2023-04-25T02:14:43.888Z,100.00
2023-04-25T02:17:56.442Z,100.00
2023-04-25T02:21:00.131Z,100.00
2023-04-25T02:24:02.588Z,100.00
2023-04-25T02:27:04.761Z,100.00
2023-04-25T02:30:07.619Z,100.00
2023-04-25T02:33:10.960Z,100.00
2023-04-25T02:36:13.215Z,100.00
2023-04-25T02:39:17.555Z,100.00
2023-04-25T02:42:19.919Z,100.00
2023-04-25T02:45:21.998Z,100.00
2023-04-25T02:48:24.118Z,100.00
2023-04-25T02:51:27.439Z,100.00
2023-04-25T02:54:31.017Z,100.00
2023-04-25T02:57:33.234Z,100.00
2023-04-25T03:00:35.215Z,100.00
2023-04-25T03:03:37.553Z,100.00
2023-04-25T03:06:40.667Z,100.00
2023-04-25T03:09:42.679Z,100.00
2023-04-25T03:12:45.015Z,100.00
2023-04-25T03:15:46.970Z,100.00
2023-04-25T03:18:50.867Z,100.00
2023-04-25T03:21:55.164Z,100.00
2023-04-25T03:24:57.193Z,100.00
2023-04-25T03:27:59.917Z,100.00
2023-04-25T03:31:03.227Z,100.00
2023-04-25T03:34:05.903Z,100.00
2023-04-25T03:37:08.195Z,100.00
2023-04-25T03:40:12.933Z,100.00
2023-04-25T03:43:35.879Z,100.00
2023-04-25T03:46:41.326Z,100.00
2023-04-25T03:49:43.777Z,100.00
2023-04-25T03:52:45.891Z,100.00
2023-04-25T03:55:48.256Z,100.00
2023-04-25T03:58:50.709Z,100.00
2023-04-25T04:05:15.315Z,100.00
2023-04-25T04:08:26.430Z,100.00
2023-04-25T04:11:31.254Z,100.00
2023-04-25T04:14:34.322Z,100.00
2023-04-25T04:17:37.968Z,100.00
2023-04-25T04:20:40.230Z,100.00
2023-04-25T04:23:42.569Z,100.00
2023-04-25T04:26:47.431Z,100.00
2023-04-25T04:30:08.881Z,100.00
2023-04-25T04:33:21.901Z,100.00
2023-04-25T04:36:31.383Z,100.00
2023-04-25T04:39:34.924Z,100.00
2023-04-25T04:42:46.994Z,100.00
2023-04-25T04:46:02.117Z,100.00
2023-04-25T04:49:41.160Z,100.00
2023-04-25T04:53:05.203Z,100.00
2023-04-25T04:56:31.534Z,100.00
2023-04-25T04:59:51.058Z,100.00
2023-04-25T05:03:15.163Z,100.00
2023-04-25T05:06:36.621Z,100.00
2023-04-25T05:10:13.935Z,100.00
2023-04-25T05:13:45.839Z,100.00
2023-04-25T05:17:16.402Z,100.00
2023-04-25T05:20:40.770Z,100.00
2023-04-25T05:24:03.847Z,100.00
2023-04-25T05:27:35.053Z,100.00
2023-04-25T05:30:51.935Z,100.00
2023-04-25T05:33:59.006Z,100.00
2023-04-25T05:37:09.454Z,100.00
2023-04-25T05:40:23.183Z,100.00
2023-04-25T05:43:52.660Z,100.00
2023-04-25T05:47:01.633Z,100.00
2023-04-25T05:50:26.556Z,100.00
2023-04-25T05:53:39.599Z,100.00
2023-04-25T05:56:42.914Z,98.85
2023-04-25T05:59:46.667Z,96.66
2023-04-25T06:05:16.905Z,93.01
2023-04-25T06:08:20.963Z,89.32
2023-04-25T06:11:24.312Z,86.31
2023-04-25T06:14:29.721Z,83.47
2023-04-25T06:17:32.164Z,80.89
2023-04-25T06:20:35.099Z,78.77
2023-04-25T06:23:37.042Z,77.10
2023-04-25T06:26:42.902Z,74.91
2023-04-25T06:29:45.324Z,73.25
2023-04-25T06:32:51.637Z,71.11
2023-04-25T06:35:54.330Z,68.48
2023-04-25T06:39:05.017Z,66.29
2023-04-25T06:42:10.911Z,62.91
2023-04-25T06:45:21.267Z,60.55
2023-04-25T06:48:24.929Z,60.11
2023-04-25T06:51:30.244Z,59.66
2023-04-25T06:54:33.609Z,59.30
2023-04-25T06:57:40.544Z,58.90
2023-04-25T07:01:04.944Z,57.55
2023-04-25T07:04:08.132Z,56.87
2023-04-25T07:07:14.385Z,56.57
2023-04-25T07:10:28.286Z,55.74
2023-04-25T07:13:31.281Z,53.67
2023-04-25T07:16:34.226Z,53.17
2023-04-25T07:24:12.764Z,51.99
2023-04-25T07:42:48.371Z,46.14
2023-04-25T07:47:15.880Z,46.07
2023-04-25T07:55:40.125Z,44.35
2023-04-25T08:05:36.390Z,45.49
2023-04-25T08:10:01.066Z,44.85
2023-04-25T08:29:47.268Z,40.75
2023-04-25T08:50:20.707Z,36.69
2023-04-25T08:58:09.996Z,37.15
2023-04-25T09:02:27.533Z,36.83
2023-04-25T09:07:07.411Z,36.93
2023-04-25T09:15:54.370Z,35.94
2023-04-25T09:40:34.782Z,33.70
2023-04-25T09:50:03.902Z,34.12
2023-04-25T10:05:46.449Z,33.39
2023-04-25T10:08:55.701Z,34.00
2023-04-25T10:11:59.529Z,34.01
2023-04-25T10:15:06.184Z,33.97
2023-04-25T10:18:10.137Z,34.05
2023-04-25T10:21:20.575Z,33.28
2023-04-25T10:24:24.667Z,33.97
2023-04-25T10:27:30.613Z,34.12
2023-04-25T10:30:32.733Z,33.94
2023-04-25T10:33:42.630Z,33.58
2023-04-25T10:36:53.041Z,33.11
2023-04-25T10:39:55.133Z,32.91
2023-04-25T10:43:38.535Z,32.59
2023-04-25T10:46:41.000Z,32.09
2023-04-25T10:49:52.560Z,31.10
2023-04-25T10:52:57.461Z,30.44
2023-04-25T10:56:04.447Z,30.35
2023-04-25T10:59:47.014Z,30.33
2023-04-25T11:14:21.007Z,28.28
2023-04-25T11:24:02.339Z,27.18
2023-04-25T11:27:35.408Z,26.87
2023-04-25T11:31:25.989Z,27.22
2023-04-25T11:39:50.777Z,27.86
2023-04-25T11:48:51.154Z,26.89
2023-04-25T11:52:42.134Z,26.90
2023-04-25T11:56:17.299Z,26.13
2023-04-25T12:04:38.043Z,26.14
2023-04-25T12:08:52.888Z,25.64
2023-04-25T12:39:25.296Z,24.19
2023-04-25T13:19:10.793Z,21.97
2023-04-25T13:23:26.405Z,21.94
2023-04-25T13:26:52.403Z,21.92
2023-04-25T13:35:54.698Z,23.46
2023-04-25T13:50:30.374Z,24.14
2023-04-25T14:06:39.383Z,22.08
2023-04-25T14:10:04.799Z,22.82
2023-04-25T14:13:49.043Z,23.56
2023-04-25T14:17:14.094Z,23.08
2023-04-25T14:26:24.066Z,20.79
2023-04-25T14:35:29.522Z,19.82
2023-04-25T14:44:10.761Z,19.54
2023-04-25T14:48:26.216Z,21.12
2023-04-25T14:52:29.110Z,22.28
2023-04-25T15:06:37.669Z,22.97
2023-04-25T15:10:18.290Z,22.67
2023-04-25T15:24:41.245Z,21.29
2023-04-25T15:28:34.446Z,20.92
2023-04-25T15:42:50.863Z,19.97
2023-04-25T15:46:35.990Z,21.56
2023-04-25T15:50:06.784Z,22.62
2023-04-25T15:53:38.881Z,23.26
2023-04-25T15:57:23.591Z,23.59
2023-04-25T16:01:15.714Z,22.90
2023-04-25T16:11:10.697Z,22.01
2023-04-25T16:20:28.076Z,22.28
2023-04-25T16:24:20.126Z,22.76
2023-04-25T16:27:48.913Z,23.51
2023-04-25T16:36:46.509Z,24.14
2023-04-25T16:40:23.524Z,24.01
2023-04-25T16:43:47.762Z,24.06
2023-04-25T16:47:49.347Z,24.37
2023-04-25T16:51:23.695Z,24.65
2023-04-25T17:09:17.900Z,27.25
2023-04-25T17:55:56.587Z,33.25
2023-04-25T18:00:05.247Z,33.85
2023-04-25T18:11:07.684Z,34.77
2023-04-25T18:15:10.649Z,35.13
2023-04-25T18:19:18.963Z,35.46
2023-04-25T18:22:38.494Z,35.92
2023-04-25T18:25:59.263Z,36.26
2023-04-25T18:30:25.049Z,36.63
2023-04-25T18:33:50.340Z,36.85
2023-04-25T18:37:39.150Z,37.15
2023-04-25T18:45:45.833Z,37.81
2023-04-25T18:49:20.058Z,38.22
2023-04-25T18:53:05.598Z,38.59
2023-04-25T18:56:26.755Z,39.29
2023-04-25T19:00:04.701Z,39.66
2023-04-25T19:03:30.641Z,39.83
2023-04-25T19:07:24.674Z,39.94
2023-04-25T19:11:14.187Z,40.34
2023-04-25T19:14:50.168Z,40.51
2023-04-25T19:18:02.302Z,41.24
2023-04-25T19:21:21.177Z,41.57
2023-04-25T19:25:09.002Z,42.00
2023-04-25T19:28:29.003Z,42.34
2023-04-25T19:31:48.799Z,42.48
2023-04-25T19:35:32.810Z,42.54
2023-04-25T19:39:08.975Z,42.89
2023-04-25T19:42:25.047Z,43.12
2023-04-25T19:45:48.078Z,43.22
2023-04-25T19:49:09.640Z,43.52
2023-04-25T19:52:17.851Z,43.74
2023-04-25T19:59:27.228Z,44.58
2023-04-25T20:06:06.790Z,46.25
2023-04-25T20:09:42.782Z,46.36
2023-04-25T20:13:51.048Z,46.92
2023-04-25T20:18:16.484Z,47.31
2023-04-25T20:27:29.542Z,48.37
2023-04-25T20:31:10.325Z,49.24
2023-04-25T20:34:55.409Z,49.69
2023-04-25T20:38:28.020Z,50.62
2023-04-25T20:48:02.257Z,52.27
2023-04-25T20:56:56.118Z,54.21
2023-04-25T21:09:43.401Z,57.80
2023-04-25T21:14:23.958Z,59.28
2023-04-25T21:22:51.016Z,63.04
2023-04-25T21:26:21.974Z,64.15
2023-04-25T21:29:51.081Z,65.44
2023-04-25T21:33:01.470Z,66.58
2023-04-25T21:36:52.569Z,67.08
2023-04-25T21:41:25.326Z,67.92
2023-04-25T21:45:43.404Z,69.54
2023-04-25T21:50:02.555Z,70.91
2023-04-25T21:54:07.400Z,72.27
2023-04-25T21:57:23.190Z,72.89
2023-04-25T22:31:48.595Z,79.60
2023-04-25T22:41:37.270Z,82.29
2023-04-25T22:45:35.915Z,83.07
2023-04-25T22:49:02.139Z,84.58
2023-04-25T22:53:00.439Z,86.49
2023-04-25T22:56:52.293Z,88.87
2023-04-25T23:01:18.903Z,89.93
2023-04-25T23:21:02.519Z,94.75
2023-04-25T23:35:59.297Z,98.65
2023-04-25T23:39:56.666Z,99.23
